createdAt,value
2023-05-19T00:02:22.904Z,10.40
2023-05-19T00:04:51.091Z,12.03
2023-05-19T00:07:20.429Z,10.37
2023-05-19T00:09:48.797Z,8.30
2023-05-19T00:12:17.273Z,11.97
2023-05-19T00:14:47.038Z,15.83
2023-05-19T00:17:16.901Z,10.80
2023-05-19T00:19:45.174Z,6.40
2023-05-19T00:22:13.019Z,8.73
2023-05-19T00:24:40.769Z,9.57
2023-05-19T00:27:08.638Z,7.70
2023-05-19T00:29:36.386Z,10.30
2023-05-19T00:32:06.275Z,13.70
2023-05-19T00:34:34.301Z,7.63
2023-05-19T00:37:02.073Z,7.47
2023-05-19T00:39:29.816Z,8.10
2023-05-19T00:41:57.579Z,7.67
2023-05-19T00:44:25.307Z,9.67
2023-05-19T00:46:53.100Z,7.37
2023-05-19T00:49:22.268Z,13.00
2023-05-19T00:51:50.664Z,9.37
2023-05-19T00:54:18.662Z,7.80
2023-05-19T00:56:46.425Z,9.03
2023-05-19T00:59:14.228Z,10.77
2023-05-19T01:01:42.051Z,7.00
2023-05-19T01:04:11.375Z,9.87
2023-05-19T01:06:40.976Z,6.90
2023-05-19T01:09:09.075Z,11.10
2023-05-19T01:11:36.838Z,11.50
2023-05-19T01:14:04.639Z,8.47
2023-05-19T01:16:38.060Z,11.67
2023-05-19T01:19:21.900Z,11.73
2023-05-19T01:22:28.851Z,13.83
2023-05-19T01:25:32.336Z,9.07
2023-05-19T01:28:27.398Z,5.33
2023-05-19T01:30:59.378Z,11.30
2023-05-19T01:33:29.651Z,13.67
2023-05-19T01:35:59.299Z,9.67
2023-05-19T01:38:29.377Z,7.63
2023-05-19T01:40:58.344Z,10.93
2023-05-19T01:43:28.666Z,9.23
2023-05-19T01:45:59.011Z,8.93
2023-05-19T01:48:28.099Z,11.90
2023-05-19T01:50:57.311Z,6.73
2023-05-19T01:53:25.379Z,7.73
2023-05-19T01:55:58.385Z,10.77
2023-05-19T01:58:36.727Z,8.93
2023-05-19T02:01:14.277Z,8.10
2023-05-19T02:03:55.051Z,8.70
2023-05-19T02:06:33.834Z,6.67
2023-05-19T02:09:05.354Z,8.87
2023-05-19T02:11:38.570Z,11.90
2023-05-19T02:14:14.704Z,6.20
2023-05-19T02:16:46.638Z,6.07
2023-05-19T02:19:25.825Z,7.57
2023-05-19T02:21:54.147Z,8.60
2023-05-19T02:24:22.828Z,7.90
2023-05-19T02:26:51.843Z,9.70
2023-05-19T02:29:20.195Z,8.23
2023-05-19T02:31:49.398Z,12.30
2023-05-19T02:34:17.225Z,9.43
2023-05-19T02:36:45.139Z,5.97
2023-05-19T02:39:13.388Z,10.50
2023-05-19T02:41:41.153Z,12.47
2023-05-19T02:44:08.925Z,9.37
2023-05-19T02:46:36.721Z,8.37
2023-05-19T02:49:05.932Z,12.03
2023-05-19T02:51:33.667Z,8.17
2023-05-19T02:54:01.416Z,7.57
2023-05-19T02:56:29.242Z,11.07
2023-05-19T02:58:58.468Z,8.80
2023-05-19T03:01:26.377Z,12.60
2023-05-19T03:03:54.220Z,6.03
2023-05-19T03:06:24.331Z,10.17
2023-05-19T03:08:52.365Z,11.73
2023-05-19T03:11:20.122Z,8.50
2023-05-19T03:13:47.865Z,9.60
2023-05-19T03:16:15.641Z,8.50
2023-05-19T03:18:44.072Z,9.67
2023-05-19T03:21:11.854Z,8.27
2023-05-19T03:23:41.137Z,10.23
2023-05-19T03:26:08.957Z,5.93
2023-05-19T03:28:36.686Z,20.10
2023-05-19T03:31:04.625Z,14.90
2023-05-19T03:33:32.447Z,10.20
2023-05-19T03:36:00.255Z,14.07
2023-05-19T03:38:27.994Z,12.27
2023-05-19T03:40:57.087Z,12.57
2023-05-19T03:43:24.881Z,9.07
2023-05-19T03:45:53.537Z,7.07
2023-05-19T03:48:21.482Z,12.50
2023-05-19T03:50:50.164Z,11.77
2023-05-19T03:53:17.914Z,17.63
2023-05-19T03:55:46.358Z,12.20
2023-05-19T03:58:15.951Z,8.80
2023-05-19T04:00:43.872Z,7.77
2023-05-19T04:03:11.809Z,8.93
2023-05-19T04:05:39.814Z,7.50
2023-05-19T04:08:07.584Z,6.23
2023-05-19T04:10:35.360Z,9.73
2023-05-19T04:13:03.193Z,8.27
2023-05-19T04:15:32.383Z,11.23
2023-05-19T04:18:00.358Z,24.27
2023-05-19T04:20:28.150Z,64.90
2023-05-19T04:22:55.900Z,58.37
2023-05-19T04:25:25.279Z,13.63
2023-05-19T04:27:53.142Z,8.10
2023-05-19T04:30:22.556Z,7.53
2023-05-19T04:32:53.760Z,7.70
2023-05-19T04:35:22.534Z,11.60
2023-05-19T04:37:50.347Z,10.07
2023-05-19T04:40:18.114Z,7.70
2023-05-19T04:42:46.222Z,11.70
2023-05-19T04:45:14.875Z,10.47
2023-05-19T04:47:43.183Z,9.03
2023-05-19T04:50:12.926Z,7.77
2023-05-19T04:52:41.675Z,7.13
2023-05-19T04:55:11.281Z,9.20
2023-05-19T04:57:39.120Z,12.30
2023-05-19T05:00:12.230Z,13.37
2023-05-19T05:02:40.083Z,7.73
2023-05-19T05:05:09.460Z,12.00
2023-05-19T05:07:38.576Z,8.33
2023-05-19T05:10:07.908Z,7.13
2023-05-19T05:12:36.700Z,8.90
2023-05-19T05:15:06.910Z,8.70
2023-05-19T05:17:35.585Z,6.97
2023-05-19T05:20:06.160Z,6.70
2023-05-19T05:22:34.640Z,9.97
2023-05-19T05:25:04.837Z,11.60
2023-05-19T05:27:32.745Z,9.00
2023-05-19T05:30:00.684Z,7.40
2023-05-19T05:32:28.563Z,5.13
2023-05-19T05:34:56.538Z,6.50
2023-05-19T05:37:24.288Z,10.77
2023-05-19T05:39:52.077Z,13.00
2023-05-19T05:42:21.340Z,6.03
2023-05-19T05:44:49.459Z,10.30
2023-05-19T05:47:17.767Z,7.90
2023-05-19T05:49:48.192Z,6.77
2023-05-19T05:52:16.853Z,8.67
2023-05-19T05:54:46.324Z,7.17
2023-05-19T05:57:14.568Z,7.50
2023-05-19T05:59:45.439Z,7.00
2023-05-19T06:02:13.308Z,8.20
2023-05-19T06:04:41.874Z,7.87
2023-05-19T06:07:09.681Z,8.33
2023-05-19T06:09:37.433Z,4.60
2023-05-19T06:12:06.604Z,8.00
2023-05-19T06:14:34.399Z,4.37
2023-05-19T06:17:03.532Z,4.73
2023-05-19T06:19:31.833Z,7.23
2023-05-19T06:21:59.622Z,8.20
2023-05-19T06:24:27.423Z,8.97
2023-05-19T06:26:55.163Z,7.33
2023-05-19T06:29:22.919Z,6.50
2023-05-19T06:31:50.731Z,8.40
2023-05-19T06:34:21.001Z,6.50
2023-05-19T06:36:48.748Z,7.53
2023-05-19T06:39:16.514Z,6.33
2023-05-19T06:41:44.253Z,8.73
2023-05-19T06:44:12.370Z,4.13
2023-05-19T06:46:40.735Z,8.10
2023-05-19T06:49:08.520Z,5.43
2023-05-19T06:51:37.662Z,8.93
2023-05-19T06:54:05.521Z,5.63
2023-05-19T06:56:33.363Z,8.17
2023-05-19T06:59:01.160Z,6.23
2023-05-19T07:01:30.170Z,8.53
2023-05-19T07:03:58.155Z,4.27
2023-05-19T07:06:26.090Z,6.97
2023-05-19T07:08:55.256Z,7.00
2023-05-19T07:11:23.399Z,4.70
2023-05-19T07:13:51.153Z,7.37
2023-05-19T07:16:18.994Z,6.93
2023-05-19T07:18:46.783Z,11.60
2023-05-19T07:21:14.603Z,5.93
2023-05-19T07:23:42.354Z,6.43
2023-05-19T07:26:11.692Z,7.87
2023-05-19T07:28:41.494Z,5.07
2023-05-19T07:31:09.544Z,5.53
2023-05-19T07:33:37.314Z,7.63
2023-05-19T07:36:05.494Z,5.43
2023-05-19T07:38:34.706Z,5.50
2023-05-19T07:41:02.605Z,3.90
2023-05-19T07:43:31.790Z,4.43
2023-05-19T07:45:59.682Z,3.97
2023-05-19T07:48:27.451Z,3.83
2023-05-19T07:50:55.254Z,6.03
2023-05-19T07:53:23.016Z,5.40
2023-05-19T07:55:50.819Z,5.10
2023-05-19T07:58:19.601Z,8.10
2023-05-19T08:00:48.736Z,5.43
2023-05-19T08:03:18.403Z,3.50
2023-05-19T08:05:46.343Z,3.97
2023-05-19T08:08:16.909Z,6.37
2023-05-19T08:10:44.846Z,3.73
2023-05-19T08:13:12.741Z,7.10
2023-05-19T08:15:41.139Z,2.53
2023-05-19T08:18:10.423Z,2.17
2023-05-19T08:20:38.208Z,2.47
2023-05-19T08:23:06.126Z,4.17
2023-05-19T08:25:33.928Z,3.17
2023-05-19T08:28:01.775Z,4.37
2023-05-19T08:30:29.588Z,3.10
2023-05-19T08:32:57.413Z,1.67
2023-05-19T08:35:26.757Z,8.07
2023-05-19T08:37:54.625Z,3.47
2023-05-19T08:40:22.458Z,3.73
2023-05-19T08:42:50.712Z,2.27
2023-05-19T08:45:18.824Z,1.50
2023-05-19T08:47:47.483Z,2.70
2023-05-19T08:50:22.945Z,1.60
2023-05-19T08:52:53.914Z,2.07
2023-05-19T08:55:34.306Z,3.63
2023-05-19T08:58:04.566Z,2.33
2023-05-19T09:00:33.774Z,1.53
2023-05-19T09:03:17.562Z,3.37
2023-05-19T09:05:50.270Z,2.30
2023-05-19T09:08:19.425Z,2.33
2023-05-19T09:10:47.426Z,1.40
2023-05-19T09:13:15.219Z,2.60
2023-05-19T09:15:43.564Z,2.57
2023-05-19T09:18:13.423Z,2.00
2023-05-19T09:20:42.558Z,2.23
2023-05-19T09:23:14.814Z,4.03
2023-05-19T09:25:50.408Z,2.23
2023-05-19T09:28:25.282Z,3.57
2023-05-19T09:31:00.633Z,2.30
2023-05-19T09:33:28.542Z,4.00
2023-05-19T09:35:56.799Z,2.50
2023-05-19T09:38:25.603Z,2.43
2023-05-19T09:40:57.496Z,3.63
2023-05-19T09:43:25.350Z,2.60
2023-05-19T09:45:56.702Z,1.77
2023-05-19T09:48:27.654Z,1.90
2023-05-19T09:50:56.690Z,2.03
2023-05-19T09:53:26.182Z,2.60
2023-05-19T09:55:58.827Z,1.73
2023-05-19T09:58:27.120Z,4.20
2023-05-19T10:00:55.487Z,2.47
2023-05-19T10:03:24.784Z,3.87
2023-05-19T10:05:54.442Z,2.80
2023-05-19T10:08:24.459Z,2.43
2023-05-19T10:10:52.457Z,3.57
2023-05-19T10:13:22.960Z,3.73
2023-05-19T10:18:26.873Z,2.53
2023-05-19T10:20:55.755Z,3.20
2023-05-19T10:23:24.008Z,1.67
2023-05-19T10:25:53.277Z,1.60
2023-05-19T10:28:27.949Z,2.73
2023-05-19T10:30:59.775Z,1.73
2023-05-19T10:33:41.170Z,1.60
2023-05-19T10:36:24.659Z,2.00
2023-05-19T10:38:59.952Z,2.33
2023-05-19T10:41:32.744Z,1.77
2023-05-19T10:44:10.909Z,1.83
2023-05-19T10:46:41.356Z,5.30
2023-05-19T10:49:09.071Z,3.13
2023-05-19T10:51:37.222Z,1.83
2023-05-19T10:54:11.521Z,1.27
2023-05-19T10:56:42.517Z,1.70
2023-05-19T10:59:32.215Z,1.80
2023-05-19T11:02:04.714Z,1.80
2023-05-19T11:04:51.113Z,1.30
2023-05-19T11:07:20.968Z,1.77
2023-05-19T11:09:52.497Z,3.33
2023-05-19T11:12:25.099Z,1.67
2023-05-19T11:14:56.095Z,1.60
2023-05-19T11:17:27.448Z,4.00
2023-05-19T11:19:56.355Z,3.60
2023-05-19T11:22:26.243Z,4.00
2023-05-19T11:24:56.551Z,7.17
2023-05-19T11:27:27.298Z,4.17
2023-05-19T11:29:57.477Z,3.30
2023-05-19T11:32:29.306Z,5.63
2023-05-19T11:34:57.691Z,3.97
2023-05-19T11:37:25.587Z,4.87
2023-05-19T11:39:53.877Z,4.57
2023-05-19T11:42:21.773Z,2.97
2023-05-19T11:44:50.167Z,3.57
2023-05-19T11:47:19.237Z,4.33
2023-05-19T11:49:49.634Z,2.93
2023-05-19T11:52:17.514Z,5.83
2023-05-19T11:54:49.878Z,3.07
2023-05-19T11:57:18.249Z,5.60
2023-05-19T11:59:48.246Z,3.60
2023-05-19T12:02:19.883Z,2.07
2023-05-19T12:04:48.346Z,5.13
2023-05-19T12:07:18.681Z,3.77
2023-05-19T12:09:47.044Z,4.40
2023-05-19T12:12:15.907Z,2.93
2023-05-19T12:14:44.068Z,1.80
2023-05-19T12:17:13.351Z,3.57
2023-05-19T12:19:44.952Z,1.90
2023-05-19T12:22:13.804Z,1.77
2023-05-19T12:24:42.758Z,2.20
2023-05-19T12:27:18.190Z,1.80
2023-05-19T12:29:51.258Z,2.20
2023-05-19T12:32:19.705Z,1.80
2023-05-19T12:34:49.181Z,4.80
2023-05-19T12:37:16.986Z,2.73
2023-05-19T12:39:45.413Z,2.23
2023-05-19T12:42:13.555Z,4.00
2023-05-19T12:44:46.680Z,1.50
2023-05-19T12:47:14.914Z,1.93
2023-05-19T12:49:56.889Z,2.00
2023-05-19T12:52:24.769Z,1.83
2023-05-19T12:54:59.655Z,1.13
2023-05-19T12:57:27.813Z,2.23
2023-05-19T13:00:01.502Z,2.30
2023-05-19T13:02:29.400Z,1.60
2023-05-19T13:04:58.775Z,2.33
2023-05-19T13:07:26.605Z,4.77
2023-05-19T13:09:54.343Z,1.47
2023-05-19T13:12:22.123Z,1.53
2023-05-19T13:14:49.835Z,2.23
2023-05-19T13:17:18.012Z,1.37
2023-05-19T13:19:45.991Z,1.90
2023-05-19T13:22:15.123Z,2.77
2023-05-19T13:24:42.865Z,1.43
2023-05-19T13:27:10.646Z,1.47
2023-05-19T13:29:38.352Z,3.73
2023-05-19T13:32:06.628Z,2.73
2023-05-19T13:34:34.356Z,4.13
2023-05-19T13:37:02.130Z,1.10
2023-05-19T13:39:31.282Z,1.13
2023-05-19T13:41:59.709Z,3.13
2023-05-19T13:44:27.611Z,2.47
2023-05-19T13:46:55.353Z,1.63
2023-05-19T13:49:23.206Z,1.43
2023-05-19T13:51:50.941Z,1.53
2023-05-19T13:54:19.073Z,2.33
2023-05-19T13:56:48.711Z,4.07
2023-05-19T13:59:17.228Z,1.60
2023-05-19T14:01:45.418Z,1.40
2023-05-19T14:04:14.136Z,1.57
2023-05-19T14:06:42.032Z,2.03
2023-05-19T14:09:09.782Z,1.20
2023-05-19T14:11:37.536Z,1.27
2023-05-19T14:14:08.392Z,0.97
2023-05-19T14:16:38.297Z,1.57
2023-05-19T14:19:06.220Z,1.00
2023-05-19T14:21:34.062Z,1.00
2023-05-19T14:24:02.503Z,1.10
2023-05-19T14:26:30.309Z,1.13
2023-05-19T14:28:58.226Z,1.00
2023-05-19T14:31:27.393Z,1.40
2023-05-19T14:33:55.730Z,2.17
2023-05-19T14:36:23.534Z,1.30
2023-05-19T14:38:53.326Z,1.63
2023-05-19T14:41:21.543Z,1.07
2023-05-19T14:43:49.276Z,2.17
2023-05-19T14:46:17.163Z,1.00
2023-05-19T14:48:46.411Z,2.10
2023-05-19T14:51:14.200Z,1.00
2023-05-19T14:53:41.981Z,1.17
2023-05-19T14:56:09.724Z,1.10
2023-05-19T14:58:37.491Z,1.20
2023-05-19T15:01:05.573Z,1.00
2023-05-19T15:03:33.355Z,1.30
2023-05-19T15:06:02.490Z,2.10
2023-05-19T15:08:30.265Z,1.80
2023-05-19T15:10:58.050Z,1.60
2023-05-19T15:13:26.346Z,1.40
2023-05-19T15:16:08.357Z,1.90
2023-05-19T15:18:43.466Z,1.27
2023-05-19T15:21:12.745Z,1.23
2023-05-19T15:23:40.543Z,1.30
2023-05-19T15:26:08.387Z,2.33
2023-05-19T15:28:36.122Z,1.37
2023-05-19T15:31:04.054Z,1.33
2023-05-19T15:33:32.154Z,2.60
2023-05-19T15:35:59.936Z,2.83
2023-05-19T15:38:30.117Z,1.00
2023-05-19T15:40:58.460Z,1.53
2023-05-19T15:43:26.244Z,1.57
2023-05-19T15:45:55.218Z,1.07
2023-05-19T15:48:23.044Z,2.10
2023-05-19T15:50:51.917Z,1.50
2023-05-19T15:53:20.262Z,3.60
2023-05-19T15:55:49.359Z,1.60
2023-05-19T15:58:17.779Z,2.83
2023-05-19T16:00:45.621Z,1.47
2023-05-19T16:03:13.470Z,1.00
2023-05-19T16:05:41.290Z,1.10
2023-05-19T16:08:09.053Z,2.17
2023-05-19T16:10:36.850Z,1.40
2023-05-19T16:13:05.995Z,1.67
2023-05-19T16:15:33.745Z,1.63
2023-05-19T16:18:01.573Z,1.70
2023-05-19T16:20:29.834Z,1.80
2023-05-19T16:22:57.771Z,1.20
2023-05-19T16:25:25.914Z,2.10
2023-05-19T16:27:53.656Z,2.13
2023-05-19T16:30:23.098Z,2.20
2023-05-19T16:32:53.072Z,1.13
2023-05-19T16:35:21.137Z,1.00
2023-05-19T16:37:49.104Z,1.20
2023-05-19T16:40:17.029Z,1.10
2023-05-19T16:42:44.774Z,1.20
2023-05-19T16:45:12.764Z,1.77
2023-05-19T16:47:41.922Z,1.40
2023-05-19T16:50:10.811Z,2.30
2023-05-19T16:52:38.609Z,1.47
2023-05-19T16:55:07.065Z,1.20
2023-05-19T16:57:34.811Z,0.90
2023-05-19T17:00:03.600Z,1.87
2023-05-19T17:02:31.463Z,0.90
2023-05-19T17:05:00.642Z,1.80
2023-05-19T17:07:29.157Z,1.43
2023-05-19T17:09:57.057Z,1.07
2023-05-19T17:12:24.858Z,1.23
2023-05-19T17:14:53.019Z,1.00
2023-05-19T17:17:20.784Z,1.30
2023-05-19T17:19:48.507Z,1.10
2023-05-19T17:22:17.590Z,1.30
2023-05-19T17:24:45.751Z,1.00
2023-05-19T17:27:15.022Z,0.90
2023-05-19T17:29:42.940Z,1.00
2023-05-19T17:32:10.736Z,0.90
2023-05-19T17:34:39.203Z,1.00
2023-05-19T17:37:06.968Z,1.00
2023-05-19T17:39:36.181Z,1.33
2023-05-19T17:42:03.946Z,1.60
2023-05-19T17:44:31.674Z,1.20
2023-05-19T17:47:00.393Z,3.90
2023-05-19T17:49:28.169Z,1.20
2023-05-19T17:51:56.441Z,1.17
2023-05-19T17:54:26.214Z,0.90
2023-05-19T17:56:59.137Z,1.07
2023-05-19T17:59:27.437Z,1.67
2023-05-19T18:01:55.862Z,4.50
2023-05-19T18:04:23.857Z,1.07
2023-05-19T18:06:52.983Z,1.30
2023-05-19T18:09:21.366Z,1.00
2023-05-19T18:11:49.237Z,1.30
2023-05-19T18:14:18.492Z,2.10
2023-05-19T18:16:47.211Z,0.87
2023-05-19T18:19:15.105Z,1.10
2023-05-19T18:21:43.157Z,1.73
2023-05-19T18:24:11.358Z,0.80
2023-05-19T18:26:41.879Z,1.10
2023-05-19T18:29:10.423Z,1.30
2023-05-19T18:31:39.802Z,1.10
2023-05-19T18:34:07.778Z,1.00
2023-05-19T18:36:36.204Z,1.07
2023-05-19T18:39:04.499Z,1.20
2023-05-19T18:41:32.613Z,1.37
2023-05-19T18:44:00.422Z,0.97
2023-05-19T18:46:28.175Z,0.70
2023-05-19T18:48:57.366Z,1.40
2023-05-19T18:51:25.128Z,0.90
2023-05-19T18:53:52.934Z,1.10
2023-05-19T18:56:24.254Z,1.67
2023-05-19T18:58:52.066Z,3.20
2023-05-19T19:01:19.890Z,3.33
2023-05-19T19:03:49.222Z,2.97
2023-05-19T19:06:20.612Z,2.10
2023-05-19T19:08:50.505Z,2.27
2023-05-19T19:11:18.385Z,3.73
2023-05-19T19:13:46.294Z,2.50
2023-05-19T19:16:14.043Z,2.37
2023-05-19T19:18:42.098Z,1.07
2023-05-19T19:21:09.898Z,1.20
2023-05-19T19:23:39.259Z,3.03
2023-05-19T19:26:08.539Z,2.13
2023-05-19T19:28:36.511Z,2.10
2023-05-19T19:31:04.395Z,2.90
2023-05-19T19:33:32.174Z,2.77
2023-05-19T19:36:00.038Z,1.77
2023-05-19T19:38:27.970Z,3.00
2023-05-19T19:40:57.140Z,2.60
2023-05-19T19:43:24.870Z,7.40
2023-05-19T19:45:59.902Z,19.27
2023-05-19T19:48:27.932Z,21.07
2023-05-19T19:50:55.945Z,8.30
2023-05-19T19:53:23.858Z,3.33
2023-05-19T19:56:00.000Z,1.87
2023-05-19T19:58:28.662Z,1.53
2023-05-19T20:01:00.244Z,1.30
2023-05-19T20:03:28.359Z,1.30
2023-05-19T20:05:57.568Z,2.13
2023-05-19T20:08:25.823Z,0.90
2023-05-19T20:10:53.873Z,2.73
2023-05-19T20:13:23.016Z,1.57
2023-05-19T20:15:51.097Z,3.07
2023-05-19T20:18:18.937Z,2.37
2023-05-19T20:20:46.689Z,1.10
2023-05-19T20:23:16.213Z,1.17
2023-05-19T20:26:02.457Z,1.33
2023-05-19T20:28:35.052Z,1.30
2023-05-19T20:31:02.884Z,1.53
2023-05-19T20:33:31.681Z,1.00
2023-05-19T20:35:59.534Z,1.10
2023-05-19T20:38:27.313Z,1.20
2023-05-19T20:40:55.149Z,1.20
2023-05-19T20:43:22.909Z,1.60
2023-05-19T20:45:52.327Z,1.10
2023-05-19T20:48:20.179Z,1.00
2023-05-19T20:50:47.927Z,1.23
2023-05-19T20:53:15.746Z,1.97
2023-05-19T20:55:45.418Z,0.90
2023-05-19T20:58:13.229Z,0.93
2023-05-19T21:00:41.300Z,0.80
2023-05-19T21:03:11.615Z,0.90
2023-05-19T21:05:39.532Z,2.30
2023-05-19T21:08:12.697Z,0.80
2023-05-19T21:10:40.959Z,0.80
2023-05-19T21:13:08.851Z,0.80
2023-05-19T21:15:36.713Z,1.00
2023-05-19T21:18:04.641Z,1.20
2023-05-19T21:20:34.136Z,1.10
2023-05-19T21:23:02.237Z,1.30
2023-05-19T21:25:30.983Z,1.87
2023-05-19T21:27:59.206Z,2.10
2023-05-19T21:30:26.998Z,3.13
2023-05-19T21:32:54.826Z,1.67
2023-05-19T21:35:22.778Z,1.90
2023-05-19T21:37:51.899Z,1.70
2023-05-19T21:40:19.698Z,1.70
2023-05-19T21:42:47.468Z,1.40
2023-05-19T21:45:15.324Z,1.20
2023-05-19T21:47:43.117Z,1.40
2023-05-19T21:50:15.573Z,0.83
2023-05-19T21:52:43.350Z,1.87
2023-05-19T21:55:12.592Z,0.90
2023-05-19T21:57:40.462Z,2.20
2023-05-19T22:00:12.888Z,19.27
2023-05-19T22:02:40.839Z,4.80
2023-05-19T22:05:09.396Z,1.43
2023-05-19T22:07:37.308Z,1.20
2023-05-19T22:10:05.719Z,2.23
2023-05-19T22:12:34.860Z,1.00
2023-05-19T22:15:03.542Z,1.80
2023-05-19T22:17:31.756Z,0.87
2023-05-19T22:19:59.576Z,1.33
2023-05-19T22:22:27.328Z,1.00
2023-05-19T22:24:55.339Z,1.23
2023-05-19T22:27:23.183Z,0.80
2023-05-19T22:29:52.318Z,1.33
2023-05-19T22:32:20.120Z,1.10
2023-05-19T22:34:47.958Z,1.00
2023-05-19T22:37:15.768Z,0.80
2023-05-19T22:39:43.503Z,1.00
2023-05-19T22:42:11.589Z,1.10
2023-05-19T22:44:39.341Z,1.07
2023-05-19T22:47:13.295Z,1.20
2023-05-19T22:49:41.107Z,1.00
2023-05-19T22:52:10.727Z,1.00
2023-05-19T22:54:38.862Z,1.17
2023-05-19T22:57:07.087Z,0.93
2023-05-19T22:59:35.483Z,2.00
2023-05-19T23:02:03.236Z,1.20
2023-05-19T23:04:33.105Z,0.80
2023-05-19T23:07:01.198Z,1.40
2023-05-19T23:09:29.188Z,1.80
2023-05-19T23:11:56.939Z,1.03
2023-05-19T23:14:25.873Z,0.90
2023-05-19T23:16:54.911Z,0.93
2023-05-19T23:19:22.885Z,3.40
2023-05-19T23:21:52.211Z,1.10
2023-05-19T23:24:19.969Z,1.23
2023-05-19T23:26:47.762Z,2.03
2023-05-19T23:29:15.752Z,0.90
2023-05-19T23:31:43.649Z,1.83
2023-05-19T23:34:11.542Z,1.20
2023-05-19T23:36:39.299Z,3.97
2023-05-19T23:39:08.416Z,3.00
2023-05-19T23:41:36.725Z,1.03
2023-05-19T23:44:04.610Z,1.23
2023-05-19T23:46:32.422Z,1.10
2023-05-19T23:49:00.533Z,1.10
2023-05-19T23:51:28.290Z,1.10
2023-05-19T23:53:56.101Z,1.10
2023-05-19T23:56:25.365Z,1.20
2023-05-19T23:58:53.147Z,1.00
